sensor_id;sensor_type;location;lat;lon;timestamp;pressure;altitude;pressure_sealevel;temperature;humidity
14295;BME280;7231;59.370;18.016;2023-05-19T00:00:29;102698.47;;;9.38;63.50
14295;BME280;7231;59.370;18.016;2023-05-19T00:03:00;102704.41;;;9.36;63.98
14295;BME280;7231;59.370;18.016;2023-05-19T00:05:29;102705.13;;;9.33;64.19
14295;BME280;7231;59.370;18.016;2023-05-19T00:07:58;102714.50;;;9.30;64.35
14295;BME280;7231;59.370;18.016;2023-05-19T00:10:27;102699.81;;;9.19;64.69
14295;BME280;7231;59.370;18.016;2023-05-19T00:12:58;102714.81;;;9.21;64.96
14295;BME280;7231;59.370;18.016;2023-05-19T00:15:26;102716.53;;;9.21;65.15
14295;BME280;7231;59.370;18.016;2023-05-19T00:17:55;102716.03;;;9.13;65.52
14295;BME280;7231;59.370;18.016;2023-05-19T00:20:24;102719.56;;;9.14;65.33
14295;BME280;7231;59.370;18.016;2023-05-19T00:22:52;102715.66;;;9.07;65.51
14295;BME280;7231;59.370;18.016;2023-05-19T00:25:20;102716.38;;;9.04;65.81
14295;BME280;7231;59.370;18.016;2023-05-19T00:27:48;102705.09;;;8.92;65.97
14295;BME280;7231;59.370;18.016;2023-05-19T00:30:16;102721.31;;;9.00;66.23
14295;BME280;7231;59.370;18.016;2023-05-19T00:32:44;102723.81;;;8.98;66.53
14295;BME280;7231;59.370;18.016;2023-05-19T00:35:12;102720.91;;;8.94;66.63
14295;BME280;7231;59.370;18.016;2023-05-19T00:37:42;102720.72;;;8.91;67.17
14295;BME280;7231;59.370;18.016;2023-05-19T00:40:13;102726.75;;;8.90;67.01
14295;BME280;7231;59.370;18.016;2023-05-19T00:42:41;102724.13;;;8.90;67.14
14295;BME280;7231;59.370;18.016;2023-05-19T00:45:09;102723.84;;;8.85;67.38
14295;BME280;7231;59.370;18.016;2023-05-19T00:47:38;102727.97;;;8.82;67.87
14295;BME280;7231;59.370;18.016;2023-05-19T00:50:06;102726.94;;;8.79;67.65
14295;BME280;7231;59.370;18.016;2023-05-19T00:52:34;102738.22;;;8.78;67.95
14295;BME280;7231;59.370;18.016;2023-05-19T00:55:04;102732.59;;;8.72;68.34
14295;BME280;7231;59.370;18.016;2023-05-19T00:57:33;102736.72;;;8.69;68.23
14295;BME280;7231;59.370;18.016;2023-05-19T01:00:02;102736.50;;;8.66;68.57
14295;BME280;7231;59.370;18.016;2023-05-19T01:02:31;102726.56;;;8.60;68.87
14295;BME280;7231;59.370;18.016;2023-05-19T01:05:00;102738.22;;;8.65;68.61
14295;BME280;7231;59.370;18.016;2023-05-19T01:07:28;102734.59;;;8.63;68.67
14295;BME280;7231;59.370;18.016;2023-05-19T01:09:56;102738.03;;;8.62;69.15
14295;BME280;7231;59.370;18.016;2023-05-19T01:12:26;102733.28;;;8.57;68.99
14295;BME280;7231;59.370;18.016;2023-05-19T01:14:54;102738.81;;;8.48;69.17
14295;BME280;7231;59.370;18.016;2023-05-19T01:17:29;102739.50;;;8.45;69.61
14295;BME280;7231;59.370;18.016;2023-05-19T01:20:06;102729.34;;;8.37;69.87
14295;BME280;7231;59.370;18.016;2023-05-19T01:22:50;102747.25;;;8.44;70.29
14295;BME280;7231;59.370;18.016;2023-05-19T01:28:56;102755.50;;;8.37;70.76
14295;BME280;7231;59.370;18.016;2023-05-19T01:31:31;102751.88;;;8.35;70.35
14295;BME280;7231;59.370;18.016;2023-05-19T01:34:00;102745.19;;;8.27;70.31
14295;BME280;7231;59.370;18.016;2023-05-19T01:36:30;102753.22;;;8.30;70.27
14295;BME280;7231;59.370;18.016;2023-05-19T01:39:00;102759.72;;;8.35;71.03
14295;BME280;7231;59.370;18.016;2023-05-19T01:41:29;102733.72;;;8.25;70.46
14295;BME280;7231;59.370;18.016;2023-05-19T01:44:01;102748.44;;;8.36;70.62
14295;BME280;7231;59.370;18.016;2023-05-19T01:46:31;102753.78;;;8.37;70.94
14295;BME280;7231;59.370;18.016;2023-05-19T01:49:00;102752.28;;;8.41;70.70
14295;BME280;7231;59.370;18.016;2023-05-19T01:51:29;102748.06;;;8.43;71.28
14295;BME280;7231;59.370;18.016;2023-05-19T01:53:57;102753.28;;;8.43;71.29
14295;BME280;7231;59.370;18.016;2023-05-19T01:56:30;102753.19;;;8.41;71.26
14295;BME280;7231;59.370;18.016;2023-05-19T01:59:11;102747.66;;;8.37;71.58
14295;BME280;7231;59.370;18.016;2023-05-19T02:01:50;102740.84;;;8.27;71.62
14295;BME280;7231;59.370;18.016;2023-05-19T02:04:26;102747.44;;;8.34;71.58
14295;BME280;7231;59.370;18.016;2023-05-19T02:07:00;102756.84;;;8.32;71.86
14295;BME280;7231;59.370;18.016;2023-05-19T02:09:37;102695.47;;;8.00;72.24
14295;BME280;7231;59.370;18.016;2023-05-19T02:12:10;102743.38;;;8.26;72.15
14295;BME280;7231;59.370;18.016;2023-05-19T02:14:45;102754.84;;;8.28;72.52
14295;BME280;7231;59.370;18.016;2023-05-19T02:17:17;102755.63;;;8.27;72.48
14295;BME280;7231;59.370;18.016;2023-05-19T02:19:46;102747.28;;;8.19;72.58
14295;BME280;7231;59.370;18.016;2023-05-19T02:22:14;102758.75;;;8.21;72.74
14295;BME280;7231;59.370;18.016;2023-05-19T02:24:41;102756.81;;;8.19;73.12
14295;BME280;7231;59.370;18.016;2023-05-19T02:27:10;102763.75;;;8.18;72.89
14295;BME280;7231;59.370;18.016;2023-05-19T02:29:38;102761.84;;;8.15;72.98
14295;BME280;7231;59.370;18.016;2023-05-19T02:32:06;102751.19;;;8.12;73.32
14295;BME280;7231;59.370;18.016;2023-05-19T02:34:36;102751.97;;;8.11;73.87
14295;BME280;7231;59.370;18.016;2023-05-19T02:37:04;102754.28;;;8.07;74.00
14295;BME280;7231;59.370;18.016;2023-05-19T02:39:33;102762.44;;;8.11;74.49
14295;BME280;7231;59.370;18.016;2023-05-19T02:42:01;102739.78;;;7.99;74.74
14295;BME280;7231;59.370;18.016;2023-05-19T02:44:29;102755.38;;;8.10;74.46
14295;BME280;7231;59.370;18.016;2023-05-19T02:46:58;102759.72;;;8.10;74.57
14295;BME280;7231;59.370;18.016;2023-05-19T02:49:26;102730.81;;;7.95;74.86
14295;BME280;7231;59.370;18.016;2023-05-19T02:51:58;102767.75;;;8.13;74.92
14295;BME280;7231;59.370;18.016;2023-05-19T02:54:27;102762.53;;;8.13;75.19
14295;BME280;7231;59.370;18.016;2023-05-19T02:56:55;102765.25;;;8.14;74.97
14295;BME280;7231;59.370;18.016;2023-05-19T02:59:23;102616.06;;;7.34;75.45
14295;BME280;7231;59.370;18.016;2023-05-19T03:01:54;102751.28;;;8.14;75.82
14295;BME280;7231;59.370;18.016;2023-05-19T03:04:22;102741.63;;;8.13;75.34
14295;BME280;7231;59.370;18.016;2023-05-19T03:06:50;102752.41;;;8.18;75.93
14295;BME280;7231;59.370;18.016;2023-05-19T03:09:21;102771.09;;;8.24;76.38
14295;BME280;7231;59.370;18.016;2023-05-19T03:11:49;102757.63;;;8.18;76.39
14295;BME280;7231;59.370;18.016;2023-05-19T03:14:17;102769.50;;;8.26;76.73
14295;BME280;7231;59.370;18.016;2023-05-19T03:16:49;102768.69;;;8.27;76.53
14295;BME280;7231;59.370;18.016;2023-05-19T03:19:18;102765.97;;;8.25;77.06
14295;BME280;7231;59.370;18.016;2023-05-19T03:21:46;102751.69;;;8.20;76.58
14295;BME280;7231;59.370;18.016;2023-05-19T03:24:15;102765.97;;;8.25;77.27
14295;BME280;7231;59.370;18.016;2023-05-19T03:26:45;102774.38;;;8.33;77.42
14295;BME280;7231;59.370;18.016;2023-05-19T03:29:13;102776.19;;;8.34;77.19
14295;BME280;7231;59.370;18.016;2023-05-19T03:31:41;102777.19;;;8.36;77.13
14295;BME280;7231;59.370;18.016;2023-05-19T03:34:09;102783.44;;;8.38;77.20
14295;BME280;7231;59.370;18.016;2023-05-19T03:36:37;102781.94;;;8.41;77.42
14295;BME280;7231;59.370;18.016;2023-05-19T03:39:05;102783.84;;;8.44;77.78
14295;BME280;7231;59.370;18.016;2023-05-19T03:41:33;102780.44;;;8.45;77.76
14295;BME280;7231;59.370;18.016;2023-05-19T03:44:03;102786.88;;;8.50;77.94
14295;BME280;7231;59.370;18.016;2023-05-19T03:46:31;102755.13;;;8.32;78.27
14295;BME280;7231;59.370;18.016;2023-05-19T03:48:59;102786.09;;;8.51;78.27
14295;BME280;7231;59.370;18.016;2023-05-19T03:51:27;102795.34;;;8.59;78.58
14295;BME280;7231;59.370;18.016;2023-05-19T03:53:55;102793.84;;;8.63;78.58
14295;BME280;7231;59.370;18.016;2023-05-19T03:56:23;102781.25;;;8.57;78.95
14295;BME280;7231;59.370;18.016;2023-05-19T03:58:53;102806.44;;;8.68;78.56
14295;BME280;7231;59.370;18.016;2023-05-19T04:01:22;102795.38;;;8.72;79.01
14295;BME280;7231;59.370;18.016;2023-05-19T04:03:50;102774.44;;;8.59;79.13
14295;BME280;7231;59.370;18.016;2023-05-19T04:06:18;102781.06;;;8.67;78.97
14295;BME280;7231;59.370;18.016;2023-05-19T04:08:46;102801.31;;;8.83;78.97
14295;BME280;7231;59.370;18.016;2023-05-19T04:11:14;102807.66;;;8.87;79.56
14295;BME280;7231;59.370;18.016;2023-05-19T04:13:42;102798.09;;;8.87;78.94
14295;BME280;7231;59.370;18.016;2023-05-19T04:16:10;102802.00;;;8.94;79.20
14295;BME280;7231;59.370;18.016;2023-05-19T04:18:40;102807.56;;;8.98;79.48
14295;BME280;7231;59.370;18.016;2023-05-19T04:21:11;102799.91;;;9.01;79.37
14295;BME280;7231;59.370;18.016;2023-05-19T04:23:39;102740.44;;;8.72;79.46
14295;BME280;7231;59.370;18.016;2023-05-19T04:26:07;102805.03;;;9.13;79.47
14295;BME280;7231;59.370;18.016;2023-05-19T04:28:35;102809.66;;;9.17;79.78
14295;BME280;7231;59.370;18.016;2023-05-19T04:31:05;102804.81;;;9.23;79.44
14295;BME280;7231;59.370;18.016;2023-05-19T04:33:36;102788.91;;;9.20;79.52
14295;BME280;7231;59.370;18.016;2023-05-19T04:36:06;102805.63;;;9.35;79.61
14295;BME280;7231;59.370;18.016;2023-05-19T04:38:36;102812.06;;;9.40;79.59
14295;BME280;7231;59.370;18.016;2023-05-19T04:41:05;102801.97;;;9.47;79.49
14295;BME280;7231;59.370;18.016;2023-05-19T04:43:36;102805.16;;;9.56;79.57
14295;BME280;7231;59.370;18.016;2023-05-19T04:46:07;102774.78;;;9.44;79.10
14295;BME280;7231;59.370;18.016;2023-05-19T04:48:39;102800.63;;;9.66;79.19
14295;BME280;7231;59.370;18.016;2023-05-19T04:51:09;102805.44;;;9.73;79.18
14295;BME280;7231;59.370;18.016;2023-05-19T04:53:41;102810.25;;;9.81;79.26
14295;BME280;7231;59.370;18.016;2023-05-19T04:56:11;102798.03;;;9.81;78.73
14295;BME280;7231;59.370;18.016;2023-05-19T04:58:41;102809.38;;;9.95;78.62
14295;BME280;7231;59.370;18.016;2023-05-19T05:01:10;102800.00;;;9.98;78.47
14295;BME280;7231;59.370;18.016;2023-05-19T05:03:39;102809.50;;;10.11;78.19
14295;BME280;7231;59.370;18.016;2023-05-19T05:06:08;102802.94;;;10.18;77.89
14295;BME280;7231;59.370;18.016;2023-05-19T05:08:37;102806.06;;;10.25;77.73
14295;BME280;7231;59.370;18.016;2023-05-19T05:11:07;102803.09;;;10.34;77.49
14295;BME280;7231;59.370;18.016;2023-05-19T05:13:36;102812.28;;;10.42;77.21
14295;BME280;7231;59.370;18.016;2023-05-19T05:16:05;102816.34;;;10.52;76.74
14295;BME280;7231;59.370;18.016;2023-05-19T05:18:36;102790.56;;;10.45;76.36
14295;BME280;7231;59.370;18.016;2023-05-19T05:21:11;102809.56;;;10.70;75.98
14295;BME280;7231;59.370;18.016;2023-05-19T05:23:44;102793.09;;;10.72;76.09
14295;BME280;7231;59.370;18.016;2023-05-19T05:26:16;102773.56;;;10.67;75.50
14295;BME280;7231;59.370;18.016;2023-05-19T05:28:45;102807.66;;;10.97;75.11
14295;BME280;7231;59.370;18.016;2023-05-19T05:31:13;102811.00;;;11.09;74.82
14295;BME280;7231;59.370;18.016;2023-05-19T05:33:41;102808.88;;;11.18;74.23
14295;BME280;7231;59.370;18.016;2023-05-19T05:36:10;102812.94;;;11.28;73.88
14295;BME280;7231;59.370;18.016;2023-05-19T05:38:39;102816.09;;;11.37;73.33
14295;BME280;7231;59.370;18.016;2023-05-19T05:41:08;102812.97;;;11.44;72.61
14295;BME280;7231;59.370;18.016;2023-05-19T05:43:36;102816.84;;;11.51;72.39
14295;BME280;7231;59.370;18.016;2023-05-19T05:46:04;102821.72;;;11.59;71.45
14295;BME280;7231;59.370;18.016;2023-05-19T05:48:33;102821.31;;;11.68;70.82
14295;BME280;7231;59.370;18.016;2023-05-19T05:51:01;102824.50;;;11.77;70.59
14295;BME280;7231;59.370;18.016;2023-05-19T05:53:32;102818.81;;;11.86;70.19
14295;BME280;7231;59.370;18.016;2023-05-19T05:56:04;102822.84;;;11.95;69.51
14295;BME280;7231;59.370;18.016;2023-05-19T05:58:33;102817.19;;;12.04;69.35
14295;BME280;7231;59.370;18.016;2023-05-19T06:01:03;102806.75;;;12.06;69.02
14295;BME280;7231;59.370;18.016;2023-05-19T06:03:31;102775.63;;;11.97;68.83
14295;BME280;7231;59.370;18.016;2023-05-19T06:06:00;102815.13;;;12.31;67.27
14295;BME280;7231;59.370;18.016;2023-05-19T06:08:28;102813.47;;;12.33;66.47
14295;BME280;7231;59.370;18.016;2023-05-19T06:10:56;102817.66;;;12.46;66.31
14295;BME280;7231;59.370;18.016;2023-05-19T06:13:24;102818.13;;;12.55;65.22
14295;BME280;7231;59.370;18.016;2023-05-19T06:15:54;102827.38;;;12.64;64.63
14295;BME280;7231;59.370;18.016;2023-05-19T06:18:22;102811.38;;;12.60;64.81
14295;BME280;7231;59.370;18.016;2023-05-19T06:20:50;102819.97;;;12.74;64.47
14295;BME280;7231;59.370;18.016;2023-05-19T06:23:18;102831.78;;;12.82;63.91
14295;BME280;7231;59.370;18.016;2023-05-19T06:25:46;102831.34;;;12.90;63.73
14295;BME280;7231;59.370;18.016;2023-05-19T06:28:14;102834.47;;;13.01;63.65
14295;BME280;7231;59.370;18.016;2023-05-19T06:30:42;102837.56;;;13.10;62.85
14295;BME280;7231;59.370;18.016;2023-05-19T06:33:11;102831.97;;;13.20;61.94
14295;BME280;7231;59.370;18.016;2023-05-19T06:35:39;102828.88;;;13.29;61.40
14295;BME280;7231;59.370;18.016;2023-05-19T06:38:07;102833.69;;;13.38;60.90
14295;BME280;7231;59.370;18.016;2023-05-19T06:40:35;102835.94;;;13.48;60.52
14295;BME280;7231;59.370;18.016;2023-05-19T06:43:03;102712.69;;;12.87;60.12
14295;BME280;7231;59.370;18.016;2023-05-19T06:45:31;102824.38;;;13.63;59.98
14295;BME280;7231;59.370;18.016;2023-05-19T06:47:59;102834.53;;;13.74;59.78
14295;BME280;7231;59.370;18.016;2023-05-19T06:50:29;102841.22;;;13.85;59.12
14295;BME280;7231;59.370;18.016;2023-05-19T06:52:57;102837.41;;;13.97;58.38
14295;BME280;7231;59.370;18.016;2023-05-19T06:55:25;102837.81;;;14.07;57.27
14295;BME280;7231;59.370;18.016;2023-05-19T06:57:53;102842.56;;;14.14;56.25
14295;BME280;7231;59.370;18.016;2023-05-19T07:00:21;102833.09;;;14.19;55.56
14295;BME280;7231;59.370;18.016;2023-05-19T07:02:49;102837.97;;;14.29;55.33
14295;BME280;7231;59.370;18.016;2023-05-19T07:05:18;102837.59;;;14.41;54.89
14295;BME280;7231;59.370;18.016;2023-05-19T07:07:47;102838.25;;;14.54;54.67
14295;BME280;7231;59.370;18.016;2023-05-19T07:10:15;102829.94;;;14.66;54.86
14295;BME280;7231;59.370;18.016;2023-05-19T07:12:43;102825.00;;;14.74;54.04
14295;BME280;7231;59.370;18.016;2023-05-19T07:15:12;102847.75;;;14.91;54.03
14295;BME280;7231;59.370;18.016;2023-05-19T07:17:39;102840.47;;;15.06;54.11
14295;BME280;7231;59.370;18.016;2023-05-19T07:20:08;102845.00;;;15.31;54.55
14295;BME280;7231;59.370;18.016;2023-05-19T07:22:36;102842.44;;;15.55;54.65
14295;BME280;7231;59.370;18.016;2023-05-19T07:25:07;102831.75;;;15.74;55.07
14295;BME280;7231;59.370;18.016;2023-05-19T07:27:36;102843.97;;;16.17;54.66
14295;BME280;7231;59.370;18.016;2023-05-19T07:30:05;102836.91;;;16.41;53.51
14295;BME280;7231;59.370;18.016;2023-05-19T07:32:33;102843.38;;;16.73;53.76
14295;BME280;7231;59.370;18.016;2023-05-19T07:35:01;102846.78;;;17.22;53.81
14295;BME280;7231;59.370;18.016;2023-05-19T07:37:30;102806.34;;;17.57;53.16
14295;BME280;7231;59.370;18.016;2023-05-19T07:39:57;102833.34;;;18.32;52.06
14295;BME280;7231;59.370;18.016;2023-05-19T07:42:27;102846.97;;;18.44;49.41
14295;BME280;7231;59.370;18.016;2023-05-19T07:44:55;102846.66;;;18.34;48.96
14295;BME280;7231;59.370;18.016;2023-05-19T07:47:23;102827.19;;;18.33;48.52
14295;BME280;7231;59.370;18.016;2023-05-19T07:49:51;102833.13;;;18.56;47.06
14295;BME280;7231;59.370;18.016;2023-05-19T07:52:19;102844.97;;;18.36;45.66
14295;BME280;7231;59.370;18.016;2023-05-19T07:54:47;102825.97;;;18.22;45.55
14295;BME280;7231;59.370;18.016;2023-05-19T07:57:15;102851.59;;;18.52;45.26
14295;BME280;7231;59.370;18.016;2023-05-19T07:59:46;102850.53;;;18.45;44.49
14295;BME280;7231;59.370;18.016;2023-05-19T08:02:13;102853.31;;;18.49;44.17
14295;BME280;7231;59.370;18.016;2023-05-19T08:04:41;102841.81;;;18.82;44.54
14295;BME280;7231;59.370;18.016;2023-05-19T08:07:09;102838.19;;;19.13;44.49
14295;BME280;7231;59.370;18.016;2023-05-19T08:09:38;102840.47;;;19.34;44.38
14295;BME280;7231;59.370;18.016;2023-05-19T08:12:05;102829.78;;;19.70;44.27
14295;BME280;7231;59.370;18.016;2023-05-19T08:14:33;102804.44;;;19.87;43.38
14295;BME280;7231;59.370;18.016;2023-05-19T08:17:03;102819.78;;;19.99;42.66
14295;BME280;7231;59.370;18.016;2023-05-19T08:19:31;102825.47;;;20.17;42.79
14295;BME280;7231;59.370;18.016;2023-05-19T08:21:59;102827.91;;;20.49;42.26
14295;BME280;7231;59.370;18.016;2023-05-19T08:24:27;102819.47;;;20.27;41.78
14295;BME280;7231;59.370;18.016;2023-05-19T08:26:56;102818.34;;;20.16;41.93
14295;BME280;7231;59.370;18.016;2023-05-19T08:29:24;102818.66;;;20.31;42.05
14295;BME280;7231;59.370;18.016;2023-05-19T08:31:52;102824.25;;;20.44;41.51
14295;BME280;7231;59.370;18.016;2023-05-19T08:34:22;102826.59;;;20.75;41.68
14295;BME280;7231;59.370;18.016;2023-05-19T08:36:50;102820.53;;;20.85;40.46
14295;BME280;7231;59.370;18.016;2023-05-19T08:39:19;102807.81;;;20.67;40.82
14295;BME280;7231;59.370;18.016;2023-05-19T08:41:52;102823.44;;;21.00;40.54
14295;BME280;7231;59.370;18.016;2023-05-19T08:44:20;102821.66;;;20.99;39.64
14295;BME280;7231;59.370;18.016;2023-05-19T08:46:48;102818.00;;;20.93;39.77
14295;BME280;7231;59.370;18.016;2023-05-19T08:49:21;102816.78;;;20.72;38.94
14295;BME280;7231;59.370;18.016;2023-05-19T08:51:59;102818.25;;;20.55;39.10
14295;BME280;7231;59.370;18.016;2023-05-19T08:54:33;102822.97;;;20.25;39.66
14295;BME280;7231;59.370;18.016;2023-05-19T08:57:05;102820.84;;;20.08;39.84
14295;BME280;7231;59.370;18.016;2023-05-19T08:59:35;102819.38;;;20.23;40.04
14295;BME280;7231;59.370;18.016;2023-05-19T09:02:04;102822.84;;;20.64;39.23
14295;BME280;7231;59.370;18.016;2023-05-19T09:04:33;102831.88;;;20.27;38.92
14295;BME280;7231;59.370;18.016;2023-05-19T09:07:04;102823.75;;;19.77;39.21
14295;BME280;7231;59.370;18.016;2023-05-19T09:09:32;102816.56;;;19.73;40.18
14295;BME280;7231;59.370;18.016;2023-05-19T09:12:00;102801.09;;;19.97;39.65
14295;BME280;7231;59.370;18.016;2023-05-19T09:14:31;102824.31;;;20.47;39.99
14295;BME280;7231;59.370;18.016;2023-05-19T09:17:00;102826.22;;;20.54;38.81
14295;BME280;7231;59.370;18.016;2023-05-19T09:19:29;102810.19;;;20.52;39.08
14295;BME280;7231;59.370;18.016;2023-05-19T09:21:57;102799.06;;;20.76;39.14
14295;BME280;7231;59.370;18.016;2023-05-19T09:24:28;102795.31;;;21.21;38.42
14295;BME280;7231;59.370;18.016;2023-05-19T09:26:56;102758.22;;;20.79;38.43
14295;BME280;7231;59.370;18.016;2023-05-19T09:29:26;102813.91;;;21.15;38.40
14295;BME280;7231;59.370;18.016;2023-05-19T09:31:55;102812.94;;;21.10;38.75
14295;BME280;7231;59.370;18.016;2023-05-19T09:34:26;102806.53;;;21.54;38.37
14295;BME280;7231;59.370;18.016;2023-05-19T09:36:54;102788.31;;;21.91;37.34
14295;BME280;7231;59.370;18.016;2023-05-19T09:39:23;102803.66;;;21.41;36.99
14295;BME280;7231;59.370;18.016;2023-05-19T09:41:54;102745.41;;;20.56;37.72
14295;BME280;7231;59.370;18.016;2023-05-19T09:44:25;102801.38;;;21.11;38.13
14295;BME280;7231;59.370;18.016;2023-05-19T09:46:55;102814.31;;;21.39;38.16
14295;BME280;7231;59.370;18.016;2023-05-19T09:49:25;102816.31;;;21.55;38.15
14295;BME280;7231;59.370;18.016;2023-05-19T09:51:55;102799.41;;;21.53;37.31
14295;BME280;7231;59.370;18.016;2023-05-19T09:54:24;102803.53;;;21.31;37.43
14295;BME280;7231;59.370;18.016;2023-05-19T09:57:00;102787.00;;;21.58;37.92
14295;BME280;7231;59.370;18.016;2023-05-19T09:59:29;102668.41;;;21.38;37.07
14295;BME280;7231;59.370;18.016;2023-05-19T10:02:00;102793.69;;;21.92;36.65
14295;BME280;7231;59.370;18.016;2023-05-19T10:04:29;102793.59;;;21.85;37.60
14295;BME280;7231;59.370;18.016;2023-05-19T10:06:58;102795.75;;;22.13;37.08
14295;BME280;7231;59.370;18.016;2023-05-19T10:09:28;102703.13;;;22.15;36.80
14295;BME280;7231;59.370;18.016;2023-05-19T10:11:57;102777.22;;;23.36;35.81
14295;BME280;7231;59.370;18.016;2023-05-19T10:14:28;102781.41;;;22.94;35.52
14295;BME280;7231;59.370;18.016;2023-05-19T10:16:57;102792.59;;;22.51;35.87
14295;BME280;7231;59.370;18.016;2023-05-19T10:19:27;102796.09;;;22.47;36.22
14295;BME280;7231;59.370;18.016;2023-05-19T10:21:55;102794.53;;;22.70;35.88
14295;BME280;7231;59.370;18.016;2023-05-19T10:24:23;102778.50;;;22.72;35.24
14295;BME280;7231;59.370;18.016;2023-05-19T10:26:55;102781.94;;;22.55;35.40
14295;BME280;7231;59.370;18.016;2023-05-19T10:29:29;102786.75;;;22.05;35.47
14295;BME280;7231;59.370;18.016;2023-05-19T10:32:01;102791.28;;;22.12;35.27
14295;BME280;7231;59.370;18.016;2023-05-19T10:34:52;102787.31;;;21.81;35.16
14295;BME280;7231;59.370;18.016;2023-05-19T10:37:32;102784.28;;;22.23;35.37
14295;BME280;7231;59.370;18.016;2023-05-19T10:40:08;102779.31;;;22.63;34.29
14295;BME280;7231;59.370;18.016;2023-05-19T10:42:44;102767.22;;;23.05;34.05
14295;BME280;7231;59.370;18.016;2023-05-19T10:45:20;102766.16;;;22.81;34.11
14295;BME280;7231;59.370;18.016;2023-05-19T10:47:49;102778.22;;;22.40;35.47
14295;BME280;7231;59.370;18.016;2023-05-19T10:50:19;102765.34;;;22.91;34.75
14295;BME280;7231;59.370;18.016;2023-05-19T10:52:52;102746.22;;;22.49;33.27
14295;BME280;7231;59.370;18.016;2023-05-19T10:55:45;102766.03;;;22.71;34.67
14295;BME280;7231;59.370;18.016;2023-05-19T10:58:37;102771.56;;;22.89;34.07
14295;BME280;7231;59.370;18.016;2023-05-19T11:01:12;102780.66;;;23.14;33.20
14295;BME280;7231;59.370;18.016;2023-05-19T11:03:44;102776.88;;;22.84;32.68
14295;BME280;7231;59.370;18.016;2023-05-19T11:06:17;102744.56;;;22.63;33.04
14295;BME280;7231;59.370;18.016;2023-05-19T11:08:46;102777.06;;;23.09;32.64
14295;BME280;7231;59.370;18.016;2023-05-19T11:11:18;102775.16;;;22.95;32.40
14295;BME280;7231;59.370;18.016;2023-05-19T11:13:50;102766.47;;;22.25;32.64
14295;BME280;7231;59.370;18.016;2023-05-19T11:16:25;102714.06;;;22.41;32.47
14295;BME280;7231;59.370;18.016;2023-05-19T11:18:54;102768.31;;;23.37;32.28
14295;BME280;7231;59.370;18.016;2023-05-19T11:21:22;102779.19;;;23.71;31.19
14295;BME280;7231;59.370;18.016;2023-05-19T11:23:50;102747.25;;;22.66;30.71
14295;BME280;7231;59.370;18.016;2023-05-19T11:26:41;102781.97;;;22.58;31.79
14295;BME280;7231;59.370;18.016;2023-05-19T11:29:10;102776.16;;;23.10;32.20
14295;BME280;7231;59.370;18.016;2023-05-19T11:31:42;102714.50;;;22.91;32.02
14295;BME280;7231;59.370;18.016;2023-05-19T11:34:10;102754.94;;;23.45;32.29
14295;BME280;7231;59.370;18.016;2023-05-19T11:36:40;102782.88;;;24.00;31.45
14295;BME280;7231;59.370;18.016;2023-05-19T11:39:09;102773.63;;;23.31;31.40
14295;BME280;7231;59.370;18.016;2023-05-19T11:41:38;102776.13;;;23.02;31.13
14295;BME280;7231;59.370;18.016;2023-05-19T11:44:08;102776.16;;;23.10;31.67
14295;BME280;7231;59.370;18.016;2023-05-19T11:46:37;102770.91;;;23.22;31.91
14295;BME280;7231;59.370;18.016;2023-05-19T11:49:06;102774.66;;;23.54;31.87
14295;BME280;7231;59.370;18.016;2023-05-19T11:51:35;102781.22;;;24.30;31.37
14295;BME280;7231;59.370;18.016;2023-05-19T11:54:04;102776.59;;;23.92;30.58
14295;BME280;7231;59.370;18.016;2023-05-19T11:56:33;102770.28;;;23.72;30.59
14295;BME280;7231;59.370;18.016;2023-05-19T11:59:03;102762.06;;;23.41;30.70
14295;BME280;7231;59.370;18.016;2023-05-19T12:01:32;102756.56;;;23.12;30.70
14295;BME280;7231;59.370;18.016;2023-05-19T12:04:08;102766.53;;;23.41;30.55
14295;BME280;7231;59.370;18.016;2023-05-19T12:06:36;102762.38;;;24.17;30.76
14295;BME280;7231;59.370;18.016;2023-05-19T12:09:04;102769.63;;;24.88;29.88
14295;BME280;7231;59.370;18.016;2023-05-19T12:11:33;102767.88;;;24.97;29.52
14295;BME280;7231;59.370;18.016;2023-05-19T12:14:01;102776.81;;;25.11;28.94
14295;BME280;7231;59.370;18.016;2023-05-19T12:16:32;102761.59;;;24.70;29.10
14295;BME280;7231;59.370;18.016;2023-05-19T12:19:04;102693.56;;;24.10;28.40
14295;BME280;7231;59.370;18.016;2023-05-19T12:21:33;102768.75;;;24.68;29.21
14295;BME280;7231;59.370;18.016;2023-05-19T12:24:02;102775.91;;;25.04;28.31
14295;BME280;7231;59.370;18.016;2023-05-19T12:26:32;102759.69;;;24.10;28.79
14295;BME280;7231;59.370;18.016;2023-05-19T12:29:00;102763.28;;;24.22;29.27
14295;BME280;7231;59.370;18.016;2023-05-19T12:31:28;102762.47;;;24.39;29.12
14295;BME280;7231;59.370;18.016;2023-05-19T12:33:56;102780.38;;;24.70;29.01
14295;BME280;7231;59.370;18.016;2023-05-19T12:36:25;102761.53;;;24.26;29.29
14295;BME280;7231;59.370;18.016;2023-05-19T12:38:55;102755.31;;;24.94;29.75
14295;BME280;7231;59.370;18.016;2023-05-19T12:41:24;102741.78;;;25.55;28.92
14295;BME280;7231;59.370;18.016;2023-05-19T12:43:53;102756.06;;;25.72;27.95
14295;BME280;7231;59.370;18.016;2023-05-19T12:46:21;102755.84;;;26.09;27.96
14295;BME280;7231;59.370;18.016;2023-05-19T12:48:49;102769.47;;;25.77;27.69
14295;BME280;7231;59.370;18.016;2023-05-19T12:51:18;102755.69;;;26.30;28.03
14295;BME280;7231;59.370;18.016;2023-05-19T12:53:48;102772.69;;;26.43;27.08
14295;BME280;7231;59.370;18.016;2023-05-19T12:56:18;102750.47;;;26.07;27.69
14295;BME280;7231;59.370;18.016;2023-05-19T12:58:46;102759.38;;;26.14;26.88
14295;BME280;7231;59.370;18.016;2023-05-19T13:01:21;102764.59;;;26.46;26.67
14295;BME280;7231;59.370;18.016;2023-05-19T13:03:49;102743.41;;;25.94;27.86
14295;BME280;7231;59.370;18.016;2023-05-19T13:06:18;102753.56;;;26.78;27.71
14295;BME280;7231;59.370;18.016;2023-05-19T13:08:46;102758.47;;;27.30;26.54